Terminal Aerodrome Forecast
Issued by NWS

Home | Current Version | Previous Version | Text Only | Print | Product List | Glossary On
Versions: 1 2 3 4 5 6 7 8 9 10 11 12 13 14 15 16 17 18 19 20 21 22 23 24 25 26
000
FTUS43 KAPX 221739
TAFPLN
TAF
KPLN 221739Z 2218/2318 09009KT P6SM VCSH OVC060
     FM222000 07011G19KT 6SM -SHRA BR OVC029
     FM222300 08012G20KT 5SM -SHRA BR OVC008 WS020/09035KT
     FM230500 05010G18KT 2SM SHRA BR VCTS OVC005CB WS020/14030KT
     FM230900 04006KT 3SM SHRA BR OVC005
     FM231700 33009KT 6SM -SHRA BR OVC008=

USA.gov is the U.S. government's official web portal to all federal, state and local government web resources and services.